sensor_id;sensor_type;location;lat;lon;timestamp;P1;durP1;ratioP1;P2;durP2;ratioP2
52724;SDS011;38621;52.830;6.914;2022-11-11T00:00:49;7.97;;;4.45;;
52724;SDS011;38621;52.830;6.914;2022-11-11T00:03:15;6.40;;;3.90;;
52724;SDS011;38621;52.830;6.914;2022-11-11T00:05:41;6.18;;;3.90;;
52724;SDS011;38621;52.830;6.914;2022-11-11T00:08:06;6.93;;;3.72;;
52724;SDS011;38621;52.830;6.914;2022-11-11T00:10:32;9.52;;;4.25;;
52724;SDS011;38621;52.830;6.914;2022-11-11T00:12:58;5.88;;;3.50;;
52724;SDS011;38621;52.830;6.914;2022-11-11T00:15:25;6.68;;;3.75;;
52724;SDS011;38621;52.830;6.914;2022-11-11T00:17:52;5.95;;;3.80;;
52724;SDS011;38621;52.830;6.914;2022-11-11T00:20:36;7.05;;;4.03;;
52724;SDS011;38621;52.830;6.914;2022-11-11T00:23:21;6.65;;;4.50;;
52724;SDS011;38621;52.830;6.914;2022-11-11T00:26:07;7.93;;;4.53;;
52724;SDS011;38621;52.830;6.914;2022-11-11T00:28:34;6.50;;;3.85;;
52724;SDS011;38621;52.830;6.914;2022-11-11T00:31:04;8.40;;;3.97;;
52724;SDS011;38621;52.830;6.914;2022-11-11T00:33:34;6.75;;;4.25;;
52724;SDS011;38621;52.830;6.914;2022-11-11T00:36:00;7.13;;;4.32;;
52724;SDS011;38621;52.830;6.914;2022-11-11T00:38:26;9.75;;;4.15;;
52724;SDS011;38621;52.830;6.914;2022-11-11T00:41:10;7.80;;;4.50;;
52724;SDS011;38621;52.830;6.914;2022-11-11T00:43:38;11.38;;;5.43;;
52724;SDS011;38621;52.830;6.914;2022-11-11T00:46:03;7.55;;;4.93;;
52724;SDS011;38621;52.830;6.914;2022-11-11T00:48:48;7.22;;;4.35;;
52724;SDS011;38621;52.830;6.914;2022-11-11T00:51:32;7.05;;;4.32;;
52724;SDS011;38621;52.830;6.914;2022-11-11T00:53:58;7.80;;;4.95;;
52724;SDS011;38621;52.830;6.914;2022-11-11T00:56:24;7.88;;;4.68;;
52724;SDS011;38621;52.830;6.914;2022-11-11T00:58:51;6.63;;;4.57;;
52724;SDS011;38621;52.830;6.914;2022-11-11T01:01:17;7.50;;;4.40;;
52724;SDS011;38621;52.830;6.914;2022-11-11T01:03:43;7.30;;;4.82;;
52724;SDS011;38621;52.830;6.914;2022-11-11T01:06:11;7.85;;;4.88;;
52724;SDS011;38621;52.830;6.914;2022-11-11T01:08:37;8.95;;;5.60;;
52724;SDS011;38621;52.830;6.914;2022-11-11T01:11:03;9.02;;;5.25;;
52724;SDS011;38621;52.830;6.914;2022-11-11T01:13:35;8.25;;;4.93;;
52724;SDS011;38621;52.830;6.914;2022-11-11T01:16:02;6.97;;;4.15;;
52724;SDS011;38621;52.830;6.914;2022-11-11T01:18:30;8.02;;;4.93;;
52724;SDS011;38621;52.830;6.914;2022-11-11T01:21:00;9.85;;;5.22;;
52724;SDS011;38621;52.830;6.914;2022-11-11T01:23:28;7.95;;;4.80;;
52724;SDS011;38621;52.830;6.914;2022-11-11T01:25:59;7.72;;;5.30;;
52724;SDS011;38621;52.830;6.914;2022-11-11T01:28:29;9.50;;;5.40;;
52724;SDS011;38621;52.830;6.914;2022-11-11T01:31:00;12.38;;;5.80;;
52724;SDS011;38621;52.830;6.914;2022-11-11T01:33:26;9.65;;;6.10;;
52724;SDS011;38621;52.830;6.914;2022-11-11T01:35:52;8.23;;;4.72;;
52724;SDS011;38621;52.830;6.914;2022-11-11T01:38:18;10.02;;;6.50;;
52724;SDS011;38621;52.830;6.914;2022-11-11T01:40:44;11.32;;;5.88;;
52724;SDS011;38621;52.830;6.914;2022-11-11T01:48:16;10.77;;;6.25;;
52724;SDS011;38621;52.830;6.914;2022-11-11T01:51:08;10.70;;;5.68;;
52724;SDS011;38621;52.830;6.914;2022-11-11T01:53:46;9.52;;;6.18;;
52724;SDS011;38621;52.830;6.914;2022-11-11T01:56:16;8.50;;;6.07;;
52724;SDS011;38621;52.830;6.914;2022-11-11T01:58:42;10.68;;;5.30;;
52724;SDS011;38621;52.830;6.914;2022-11-11T02:01:08;9.90;;;6.45;;
52724;SDS011;38621;52.830;6.914;2022-11-11T02:03:36;11.05;;;7.05;;
52724;SDS011;38621;52.830;6.914;2022-11-11T02:06:05;9.27;;;7.00;;
52724;SDS011;38621;52.830;6.914;2022-11-11T02:08:32;9.02;;;5.60;;
52724;SDS011;38621;52.830;6.914;2022-11-11T02:11:06;11.32;;;7.03;;
52724;SDS011;38621;52.830;6.914;2022-11-11T02:13:38;12.85;;;6.82;;
52724;SDS011;38621;52.830;6.914;2022-11-11T02:16:25;9.15;;;5.75;;
52724;SDS011;38621;52.830;6.914;2022-11-11T02:18:51;10.68;;;6.25;;
52724;SDS011;38621;52.830;6.914;2022-11-11T02:21:34;11.30;;;6.00;;
52724;SDS011;38621;52.830;6.914;2022-11-11T02:24:08;10.50;;;7.63;;
52724;SDS011;38621;52.830;6.914;2022-11-11T02:26:38;10.15;;;7.05;;
52724;SDS011;38621;52.830;6.914;2022-11-11T02:29:07;10.27;;;6.47;;
52724;SDS011;38621;52.830;6.914;2022-11-11T02:31:39;11.00;;;6.68;;
52724;SDS011;38621;52.830;6.914;2022-11-11T02:34:04;11.63;;;7.65;;
52724;SDS011;38621;52.830;6.914;2022-11-11T02:36:30;11.35;;;7.50;;
52724;SDS011;38621;52.830;6.914;2022-11-11T02:38:56;11.63;;;7.60;;
52724;SDS011;38621;52.830;6.914;2022-11-11T02:41:22;10.30;;;7.25;;
52724;SDS011;38621;52.830;6.914;2022-11-11T02:44:06;16.42;;;8.02;;
52724;SDS011;38621;52.830;6.914;2022-11-11T02:46:32;11.55;;;7.95;;
52724;SDS011;38621;52.830;6.914;2022-11-11T02:48:58;12.57;;;8.75;;
52724;SDS011;38621;52.830;6.914;2022-11-11T02:51:23;16.55;;;9.02;;
52724;SDS011;38621;52.830;6.914;2022-11-11T02:53:49;11.32;;;7.57;;
52724;SDS011;38621;52.830;6.914;2022-11-11T02:56:14;12.80;;;7.65;;
52724;SDS011;38621;52.830;6.914;2022-11-11T02:59:03;12.52;;;8.63;;
52724;SDS011;38621;52.830;6.914;2022-11-11T03:01:28;12.20;;;8.15;;
52724;SDS011;38621;52.830;6.914;2022-11-11T03:03:54;12.55;;;8.73;;
52724;SDS011;38621;52.830;6.914;2022-11-11T03:06:20;13.52;;;8.35;;
52724;SDS011;38621;52.830;6.914;2022-11-11T03:08:45;14.65;;;9.13;;
52724;SDS011;38621;52.830;6.914;2022-11-11T03:11:12;13.98;;;9.00;;
52724;SDS011;38621;52.830;6.914;2022-11-11T03:13:38;14.15;;;8.55;;
52724;SDS011;38621;52.830;6.914;2022-11-11T03:16:04;12.82;;;8.48;;
52724;SDS011;38621;52.830;6.914;2022-11-11T03:18:30;11.13;;;8.05;;
52724;SDS011;38621;52.830;6.914;2022-11-11T03:20:55;16.90;;;9.57;;
52724;SDS011;38621;52.830;6.914;2022-11-11T03:23:30;12.18;;;8.40;;
52724;SDS011;38621;52.830;6.914;2022-11-11T03:25:55;16.67;;;9.02;;
52724;SDS011;38621;52.830;6.914;2022-11-11T03:28:21;15.23;;;8.85;;
52724;SDS011;38621;52.830;6.914;2022-11-11T03:30:49;14.35;;;10.10;;
52724;SDS011;38621;52.830;6.914;2022-11-11T03:33:15;16.95;;;10.52;;
52724;SDS011;38621;52.830;6.914;2022-11-11T03:35:42;14.93;;;9.40;;
52724;SDS011;38621;52.830;6.914;2022-11-11T03:38:11;17.92;;;10.50;;
52724;SDS011;38621;52.830;6.914;2022-11-11T03:40:43;14.82;;;9.45;;
52724;SDS011;38621;52.830;6.914;2022-11-11T03:43:13;16.17;;;9.38;;
52724;SDS011;38621;52.830;6.914;2022-11-11T03:45:41;14.93;;;10.27;;
52724;SDS011;38621;52.830;6.914;2022-11-11T03:48:08;13.85;;;10.43;;
52724;SDS011;38621;52.830;6.914;2022-11-11T03:50:35;14.20;;;9.73;;
52724;SDS011;38621;52.830;6.914;2022-11-11T03:53:00;12.73;;;9.43;;
52724;SDS011;38621;52.830;6.914;2022-11-11T03:55:26;14.93;;;10.40;;
52724;SDS011;38621;52.830;6.914;2022-11-11T03:57:52;15.88;;;10.40;;
52724;SDS011;38621;52.830;6.914;2022-11-11T04:00:19;17.73;;;10.35;;
52724;SDS011;38621;52.830;6.914;2022-11-11T04:02:47;15.60;;;10.80;;
52724;SDS011;38621;52.830;6.914;2022-11-11T04:05:32;17.63;;;11.30;;
52724;SDS011;38621;52.830;6.914;2022-11-11T04:08:16;16.63;;;10.93;;
52724;SDS011;38621;52.830;6.914;2022-11-11T04:11:02;16.80;;;10.98;;
52724;SDS011;38621;52.830;6.914;2022-11-11T04:13:32;15.20;;;10.30;;
52724;SDS011;38621;52.830;6.914;2022-11-11T04:16:17;18.35;;;10.30;;
52724;SDS011;38621;52.830;6.914;2022-11-11T04:18:42;16.10;;;10.88;;
52724;SDS011;38621;52.830;6.914;2022-11-11T04:21:27;19.42;;;11.32;;
52724;SDS011;38621;52.830;6.914;2022-11-11T04:24:12;16.40;;;11.50;;
52724;SDS011;38621;52.830;6.914;2022-11-11T04:26:58;19.00;;;10.70;;
52724;SDS011;38621;52.830;6.914;2022-11-11T04:29:25;17.35;;;11.95;;
52724;SDS011;38621;52.830;6.914;2022-11-11T04:34:42;14.43;;;9.82;;
52724;SDS011;38621;52.830;6.914;2022-11-11T04:37:12;19.20;;;12.27;;
52724;SDS011;38621;52.830;6.914;2022-11-11T04:39:38;14.88;;;10.30;;
52724;SDS011;38621;52.830;6.914;2022-11-11T04:42:23;17.80;;;11.93;;
52724;SDS011;38621;52.830;6.914;2022-11-11T04:44:50;15.80;;;10.98;;
52724;SDS011;38621;52.830;6.914;2022-11-11T04:47:34;16.15;;;11.95;;
52724;SDS011;38621;52.830;6.914;2022-11-11T04:50:00;16.45;;;10.32;;
52724;SDS011;38621;52.830;6.914;2022-11-11T04:52:25;14.18;;;9.95;;
52724;SDS011;38621;52.830;6.914;2022-11-11T04:54:55;16.63;;;10.15;;
52724;SDS011;38621;52.830;6.914;2022-11-11T04:57:41;17.60;;;10.75;;
52724;SDS011;38621;52.830;6.914;2022-11-11T05:00:12;16.48;;;11.50;;
52724;SDS011;38621;52.830;6.914;2022-11-11T05:02:40;18.08;;;9.60;;
52724;SDS011;38621;52.830;6.914;2022-11-11T05:05:25;17.40;;;11.02;;
52724;SDS011;38621;52.830;6.914;2022-11-11T05:07:51;13.68;;;10.10;;
52724;SDS011;38621;52.830;6.914;2022-11-11T05:10:36;14.00;;;10.18;;
52724;SDS011;38621;52.830;6.914;2022-11-11T05:13:02;14.07;;;10.23;;
52724;SDS011;38621;52.830;6.914;2022-11-11T05:15:47;16.70;;;10.18;;
52724;SDS011;38621;52.830;6.914;2022-11-11T05:18:31;15.32;;;10.57;;
52724;SDS011;38621;52.830;6.914;2022-11-11T05:21:22;16.50;;;10.52;;
52724;SDS011;38621;52.830;6.914;2022-11-11T05:23:51;14.90;;;9.77;;
52724;SDS011;38621;52.830;6.914;2022-11-11T05:26:35;16.80;;;11.63;;
52724;SDS011;38621;52.830;6.914;2022-11-11T05:29:01;16.75;;;10.43;;
52724;SDS011;38621;52.830;6.914;2022-11-11T05:31:28;18.95;;;10.02;;
52724;SDS011;38621;52.830;6.914;2022-11-11T05:33:54;16.05;;;10.50;;
52724;SDS011;38621;52.830;6.914;2022-11-11T05:36:20;16.10;;;10.75;;
52724;SDS011;38621;52.830;6.914;2022-11-11T05:38:46;15.43;;;10.30;;
52724;SDS011;38621;52.830;6.914;2022-11-11T05:41:11;17.55;;;10.13;;
52724;SDS011;38621;52.830;6.914;2022-11-11T05:43:37;13.80;;;9.48;;
52724;SDS011;38621;52.830;6.914;2022-11-11T05:46:03;15.77;;;9.43;;
52724;SDS011;38621;52.830;6.914;2022-11-11T05:48:29;14.15;;;9.10;;
52724;SDS011;38621;52.830;6.914;2022-11-11T05:50:58;15.02;;;10.05;;
52724;SDS011;38621;52.830;6.914;2022-11-11T05:53:24;14.00;;;8.95;;
52724;SDS011;38621;52.830;6.914;2022-11-11T05:55:50;12.88;;;9.10;;
52724;SDS011;38621;52.830;6.914;2022-11-11T05:58:16;18.23;;;9.85;;
52724;SDS011;38621;52.830;6.914;2022-11-11T06:00:43;15.00;;;10.13;;
52724;SDS011;38621;52.830;6.914;2022-11-11T06:03:08;14.50;;;9.45;;
52724;SDS011;38621;52.830;6.914;2022-11-11T06:05:37;15.40;;;9.30;;
52724;SDS011;38621;52.830;6.914;2022-11-11T06:08:03;15.82;;;11.25;;
52724;SDS011;38621;52.830;6.914;2022-11-11T06:10:29;14.40;;;10.30;;
52724;SDS011;38621;52.830;6.914;2022-11-11T06:12:55;15.82;;;9.80;;
52724;SDS011;38621;52.830;6.914;2022-11-11T06:15:38;12.68;;;9.00;;
52724;SDS011;38621;52.830;6.914;2022-11-11T06:18:05;14.13;;;9.25;;
52724;SDS011;38621;52.830;6.914;2022-11-11T06:20:31;13.38;;;8.57;;
52724;SDS011;38621;52.830;6.914;2022-11-11T06:22:59;13.95;;;9.10;;
52724;SDS011;38621;52.830;6.914;2022-11-11T06:25:30;13.35;;;8.60;;
52724;SDS011;38621;52.830;6.914;2022-11-11T06:28:16;13.45;;;8.38;;
52724;SDS011;38621;52.830;6.914;2022-11-11T06:30:42;14.13;;;8.95;;
52724;SDS011;38621;52.830;6.914;2022-11-11T06:33:09;14.07;;;8.73;;
52724;SDS011;38621;52.830;6.914;2022-11-11T06:35:35;13.55;;;8.20;;
52724;SDS011;38621;52.830;6.914;2022-11-11T06:38:02;12.80;;;8.63;;
52724;SDS011;38621;52.830;6.914;2022-11-11T06:40:29;13.27;;;8.88;;
52724;SDS011;38621;52.830;6.914;2022-11-11T06:42:58;12.73;;;8.77;;
52724;SDS011;38621;52.830;6.914;2022-11-11T06:45:25;14.52;;;9.98;;
52724;SDS011;38621;52.830;6.914;2022-11-11T06:47:53;14.98;;;9.25;;
52724;SDS011;38621;52.830;6.914;2022-11-11T06:50:19;13.40;;;8.52;;
52724;SDS011;38621;52.830;6.914;2022-11-11T06:52:45;14.52;;;8.43;;
52724;SDS011;38621;52.830;6.914;2022-11-11T06:55:11;13.07;;;9.05;;
52724;SDS011;38621;52.830;6.914;2022-11-11T06:57:37;14.30;;;9.55;;
52724;SDS011;38621;52.830;6.914;2022-11-11T07:00:03;13.50;;;8.98;;
52724;SDS011;38621;52.830;6.914;2022-11-11T07:02:30;15.70;;;8.82;;
52724;SDS011;38621;52.830;6.914;2022-11-11T07:04:56;12.52;;;7.55;;
52724;SDS011;38621;52.830;6.914;2022-11-11T07:07:22;12.65;;;9.00;;
52724;SDS011;38621;52.830;6.914;2022-11-11T07:09:47;14.10;;;9.57;;
52724;SDS011;38621;52.830;6.914;2022-11-11T07:12:13;12.45;;;9.02;;
52724;SDS011;38621;52.830;6.914;2022-11-11T07:14:39;14.48;;;9.77;;
52724;SDS011;38621;52.830;6.914;2022-11-11T07:17:05;15.07;;;9.35;;
52724;SDS011;38621;52.830;6.914;2022-11-11T07:19:30;15.30;;;8.75;;
52724;SDS011;38621;52.830;6.914;2022-11-11T07:21:56;13.02;;;9.15;;
52724;SDS011;38621;52.830;6.914;2022-11-11T07:24:21;15.10;;;9.18;;
52724;SDS011;38621;52.830;6.914;2022-11-11T07:26:47;15.07;;;8.90;;
52724;SDS011;38621;52.830;6.914;2022-11-11T07:29:13;13.95;;;8.43;;
52724;SDS011;38621;52.830;6.914;2022-11-11T07:31:39;13.98;;;8.68;;
52724;SDS011;38621;52.830;6.914;2022-11-11T07:34:06;14.23;;;8.57;;
52724;SDS011;38621;52.830;6.914;2022-11-11T07:36:32;13.35;;;8.13;;
52724;SDS011;38621;52.830;6.914;2022-11-11T07:38:58;12.65;;;8.35;;
52724;SDS011;38621;52.830;6.914;2022-11-11T07:41:23;15.57;;;9.00;;
52724;SDS011;38621;52.830;6.914;2022-11-11T07:43:49;13.73;;;8.50;;
52724;SDS011;38621;52.830;6.914;2022-11-11T07:46:15;13.13;;;9.32;;
52724;SDS011;38621;52.830;6.914;2022-11-11T07:48:41;13.30;;;8.32;;
52724;SDS011;38621;52.830;6.914;2022-11-11T07:51:07;14.27;;;9.48;;
52724;SDS011;38621;52.830;6.914;2022-11-11T07:53:32;14.68;;;8.70;;
52724;SDS011;38621;52.830;6.914;2022-11-11T07:55:58;14.25;;;8.80;;
52724;SDS011;38621;52.830;6.914;2022-11-11T07:58:23;13.25;;;8.30;;
52724;SDS011;38621;52.830;6.914;2022-11-11T08:00:49;12.57;;;8.75;;
52724;SDS011;38621;52.830;6.914;2022-11-11T08:03:15;12.77;;;8.57;;
52724;SDS011;38621;52.830;6.914;2022-11-11T08:05:41;13.10;;;8.40;;
52724;SDS011;38621;52.830;6.914;2022-11-11T08:08:07;12.90;;;8.13;;
52724;SDS011;38621;52.830;6.914;2022-11-11T08:10:34;12.02;;;8.68;;
52724;SDS011;38621;52.830;6.914;2022-11-11T08:13:01;13.38;;;7.90;;
52724;SDS011;38621;52.830;6.914;2022-11-11T08:15:46;12.45;;;8.98;;
52724;SDS011;38621;52.830;6.914;2022-11-11T08:18:11;11.57;;;8.52;;
52724;SDS011;38621;52.830;6.914;2022-11-11T08:20:37;14.02;;;9.00;;
52724;SDS011;38621;52.830;6.914;2022-11-11T08:23:03;14.98;;;7.75;;
52724;SDS011;38621;52.830;6.914;2022-11-11T08:25:29;13.38;;;9.02;;
52724;SDS011;38621;52.830;6.914;2022-11-11T08:27:59;14.57;;;8.20;;
52724;SDS011;38621;52.830;6.914;2022-11-11T08:30:26;14.45;;;9.27;;
52724;SDS011;38621;52.830;6.914;2022-11-11T08:32:59;13.95;;;8.57;;
52724;SDS011;38621;52.830;6.914;2022-11-11T08:35:30;12.02;;;8.05;;
52724;SDS011;38621;52.830;6.914;2022-11-11T08:37:59;12.85;;;8.52;;
52724;SDS011;38621;52.830;6.914;2022-11-11T08:40:26;11.35;;;7.47;;
52724;SDS011;38621;52.830;6.914;2022-11-11T08:42:55;12.70;;;7.97;;
52724;SDS011;38621;52.830;6.914;2022-11-11T08:45:22;14.13;;;9.07;;
52724;SDS011;38621;52.830;6.914;2022-11-11T08:47:49;13.05;;;8.73;;
52724;SDS011;38621;52.830;6.914;2022-11-11T08:50:15;12.60;;;9.07;;
52724;SDS011;38621;52.830;6.914;2022-11-11T08:52:47;13.60;;;8.23;;
52724;SDS011;38621;52.830;6.914;2022-11-11T08:55:14;14.45;;;9.02;;
52724;SDS011;38621;52.830;6.914;2022-11-11T08:57:40;13.10;;;7.80;;
52724;SDS011;38621;52.830;6.914;2022-11-11T09:00:06;13.70;;;8.07;;
52724;SDS011;38621;52.830;6.914;2022-11-11T09:02:32;15.38;;;8.98;;
52724;SDS011;38621;52.830;6.914;2022-11-11T09:04:58;12.65;;;8.77;;
52724;SDS011;38621;52.830;6.914;2022-11-11T09:07:24;12.77;;;8.57;;
52724;SDS011;38621;52.830;6.914;2022-11-11T09:09:52;13.77;;;8.43;;
52724;SDS011;38621;52.830;6.914;2022-11-11T09:12:18;11.70;;;8.85;;
52724;SDS011;38621;52.830;6.914;2022-11-11T09:14:43;15.15;;;8.73;;
52724;SDS011;38621;52.830;6.914;2022-11-11T09:17:09;12.88;;;8.85;;
52724;SDS011;38621;52.830;6.914;2022-11-11T09:19:35;11.02;;;7.43;;
52724;SDS011;38621;52.830;6.914;2022-11-11T09:22:01;14.48;;;9.00;;
52724;SDS011;38621;52.830;6.914;2022-11-11T09:24:27;11.65;;;7.72;;
52724;SDS011;38621;52.830;6.914;2022-11-11T09:26:52;13.38;;;8.63;;
52724;SDS011;38621;52.830;6.914;2022-11-11T09:29:18;15.07;;;8.57;;
52724;SDS011;38621;52.830;6.914;2022-11-11T09:31:45;13.73;;;9.10;;
52724;SDS011;38621;52.830;6.914;2022-11-11T09:34:11;15.05;;;8.55;;
52724;SDS011;38621;52.830;6.914;2022-11-11T09:36:37;17.42;;;10.57;;
52724;SDS011;38621;52.830;6.914;2022-11-11T09:39:03;14.77;;;9.93;;
52724;SDS011;38621;52.830;6.914;2022-11-11T09:44:41;14.63;;;9.70;;
52724;SDS011;38621;52.830;6.914;2022-11-11T09:47:18;15.20;;;10.38;;
52724;SDS011;38621;52.830;6.914;2022-11-11T09:49:55;15.32;;;9.23;;
52724;SDS011;38621;52.830;6.914;2022-11-11T09:52:27;13.25;;;9.00;;
52724;SDS011;38621;52.830;6.914;2022-11-11T09:59:54;15.40;;;9.23;;
52724;SDS011;38621;52.830;6.914;2022-11-11T10:02:38;12.73;;;8.93;;
52724;SDS011;38621;52.830;6.914;2022-11-11T10:05:51;15.10;;;8.95;;
52724;SDS011;38621;52.830;6.914;2022-11-11T10:08:25;13.90;;;9.23;;
52724;SDS011;38621;52.830;6.914;2022-11-11T10:10:54;11.07;;;8.00;;
52724;SDS011;38621;52.830;6.914;2022-11-11T10:13:32;13.95;;;8.15;;
52724;SDS011;38621;52.830;6.914;2022-11-11T10:21:15;13.48;;;8.90;;
52724;SDS011;38621;52.830;6.914;2022-11-11T10:23:47;11.80;;;7.28;;
52724;SDS011;38621;52.830;6.914;2022-11-11T10:28:44;12.50;;;7.90;;
52724;SDS011;38621;52.830;6.914;2022-11-11T10:31:14;11.45;;;8.02;;
52724;SDS011;38621;52.830;6.914;2022-11-11T10:34:04;12.35;;;8.00;;
52724;SDS011;38621;52.830;6.914;2022-11-11T10:36:37;11.98;;;7.90;;
52724;SDS011;38621;52.830;6.914;2022-11-11T10:39:07;11.73;;;7.70;;
52724;SDS011;38621;52.830;6.914;2022-11-11T10:41:42;12.02;;;7.50;;
52724;SDS011;38621;52.830;6.914;2022-11-11T10:44:28;11.32;;;8.02;;
52724;SDS011;38621;52.830;6.914;2022-11-11T10:49:30;10.55;;;8.02;;
52724;SDS011;38621;52.830;6.914;2022-11-11T10:52:09;12.60;;;8.48;;
52724;SDS011;38621;52.830;6.914;2022-11-11T10:54:45;11.65;;;7.80;;
52724;SDS011;38621;52.830;6.914;2022-11-11T11:00:10;9.57;;;6.90;;
52724;SDS011;38621;52.830;6.914;2022-11-11T11:05:35;11.02;;;7.20;;
52724;SDS011;38621;52.830;6.914;2022-11-11T11:08:07;8.40;;;5.45;;
52724;SDS011;38621;52.830;6.914;2022-11-11T11:10:44;7.95;;;5.93;;
52724;SDS011;38621;52.830;6.914;2022-11-11T11:15:49;9.00;;;6.18;;
52724;SDS011;38621;52.830;6.914;2022-11-11T11:18:20;9.23;;;7.43;;
52724;SDS011;38621;52.830;6.914;2022-11-11T11:21:03;11.68;;;6.97;;
52724;SDS011;38621;52.830;6.914;2022-11-11T11:23:42;8.77;;;6.53;;
52724;SDS011;38621;52.830;6.914;2022-11-11T11:26:10;9.52;;;5.78;;
52724;SDS011;38621;52.830;6.914;2022-11-11T11:28:54;8.80;;;6.45;;
52724;SDS011;38621;52.830;6.914;2022-11-11T11:31:34;8.63;;;5.97;;
52724;SDS011;38621;52.830;6.914;2022-11-11T11:34:04;9.63;;;6.18;;
52724;SDS011;38621;52.830;6.914;2022-11-11T11:36:30;9.48;;;6.00;;
52724;SDS011;38621;52.830;6.914;2022-11-11T11:38:56;7.43;;;5.70;;
52724;SDS011;38621;52.830;6.914;2022-11-11T11:41:38;8.80;;;6.25;;
52724;SDS011;38621;52.830;6.914;2022-11-11T11:44:48;9.10;;;5.45;;
52724;SDS011;38621;52.830;6.914;2022-11-11T11:47:01;10.68;;;6.57;;
52724;SDS011;38621;52.830;6.914;2022-11-11T11:52:28;9.05;;;5.72;;
52724;SDS011;38621;52.830;6.914;2022-11-11T11:55:15;7.35;;;5.55;;
52724;SDS011;38621;52.830;6.914;2022-11-11T12:05:40;7.45;;;6.10;;
52724;SDS011;38621;52.830;6.914;2022-11-11T12:19:09;9.73;;;5.60;;
52724;SDS011;38621;52.830;6.914;2022-11-11T12:21:59;8.20;;;6.28;;
52724;SDS011;38621;52.830;6.914;2022-11-11T12:27:26;8.20;;;5.60;;
52724;SDS011;38621;52.830;6.914;2022-11-11T12:30:11;8.68;;;5.97;;
52724;SDS011;38621;52.830;6.914;2022-11-11T12:38:35;7.80;;;5.60;;
52724;SDS011;38621;52.830;6.914;2022-11-11T12:44:21;8.38;;;5.22;;
52724;SDS011;38621;52.830;6.914;2022-11-11T12:47:11;7.72;;;5.57;;
52724;SDS011;38621;52.830;6.914;2022-11-11T12:55:20;7.60;;;4.97;;
52724;SDS011;38621;52.830;6.914;2022-11-11T13:00:59;7.85;;;4.50;;
52724;SDS011;38621;52.830;6.914;2022-11-11T13:03:34;7.15;;;4.75;;
52724;SDS011;38621;52.830;6.914;2022-11-11T13:06:17;8.05;;;4.30;;
52724;SDS011;38621;52.830;6.914;2022-11-11T13:08:58;7.43;;;4.63;;
52724;SDS011;38621;52.830;6.914;2022-11-11T13:12:00;8.43;;;5.13;;
52724;SDS011;38621;52.830;6.914;2022-11-11T13:17:34;9.10;;;4.90;;
52724;SDS011;38621;52.830;6.914;2022-11-11T13:20:10;6.93;;;4.28;;
52724;SDS011;38621;52.830;6.914;2022-11-11T13:22:50;6.25;;;3.92;;
52724;SDS011;38621;52.830;6.914;2022-11-11T13:25:19;6.47;;;3.92;;
52724;SDS011;38621;52.830;6.914;2022-11-11T13:33:08;5.60;;;4.28;;
52724;SDS011;38621;52.830;6.914;2022-11-11T13:35:57;7.38;;;4.03;;
52724;SDS011;38621;52.830;6.914;2022-11-11T13:40:51;7.45;;;4.82;;
52724;SDS011;38621;52.830;6.914;2022-11-11T13:43:21;6.43;;;3.95;;
52724;SDS011;38621;52.830;6.914;2022-11-11T13:45:54;8.70;;;4.40;;
52724;SDS011;38621;52.830;6.914;2022-11-11T13:48:44;6.78;;;4.03;;
52724;SDS011;38621;52.830;6.914;2022-11-11T13:53:55;7.10;;;4.15;;
52724;SDS011;38621;52.830;6.914;2022-11-11T13:56:27;7.97;;;3.88;;
52724;SDS011;38621;52.830;6.914;2022-11-11T13:59:03;7.80;;;4.20;;
52724;SDS011;38621;52.830;6.914;2022-11-11T14:01:32;7.57;;;4.32;;
52724;SDS011;38621;52.830;6.914;2022-11-11T14:04:03;6.32;;;3.88;;
52724;SDS011;38621;52.830;6.914;2022-11-11T14:08:59;6.53;;;4.72;;
52724;SDS011;38621;52.830;6.914;2022-11-11T14:13:52;6.47;;;3.67;;
52724;SDS011;38621;52.830;6.914;2022-11-11T14:19:31;5.82;;;3.85;;
52724;SDS011;38621;52.830;6.914;2022-11-11T14:22:00;6.43;;;3.65;;
52724;SDS011;38621;52.830;6.914;2022-11-11T14:24:40;5.10;;;3.50;;
52724;SDS011;38621;52.830;6.914;2022-11-11T14:29:50;6.78;;;3.80;;
52724;SDS011;38621;52.830;6.914;2022-11-11T14:35:35;4.97;;;3.38;;
52724;SDS011;38621;52.830;6.914;2022-11-11T14:40:45;5.22;;;3.50;;
52724;SDS011;38621;52.830;6.914;2022-11-11T14:46:07;6.22;;;3.30;;
52724;SDS011;38621;52.830;6.914;2022-11-11T14:48:54;5.80;;;3.78;;
52724;SDS011;38621;52.830;6.914;2022-11-11T14:51:41;7.68;;;3.30;;
52724;SDS011;38621;52.830;6.914;2022-11-11T14:54:35;5.47;;;3.60;;
52724;SDS011;38621;52.830;6.914;2022-11-11T14:57:15;5.97;;;3.65;;
52724;SDS011;38621;52.830;6.914;2022-11-11T14:59:48;4.93;;;3.08;;
52724;SDS011;38621;52.830;6.914;2022-11-11T15:02:21;5.57;;;3.65;;
52724;SDS011;38621;52.830;6.914;2022-11-11T15:04:59;5.50;;;3.88;;
52724;SDS011;38621;52.830;6.914;2022-11-11T15:16:20;5.15;;;3.40;;
52724;SDS011;38621;52.830;6.914;2022-11-11T15:26:50;4.35;;;3.00;;
52724;SDS011;38621;52.830;6.914;2022-11-11T15:34:46;7.38;;;3.60;;
52724;SDS011;38621;52.830;6.914;2022-11-11T15:37:37;6.55;;;3.38;;
52724;SDS011;38621;52.830;6.914;2022-11-11T15:40:04;5.78;;;3.00;;
52724;SDS011;38621;52.830;6.914;2022-11-11T15:42:37;6.88;;;3.10;;
52724;SDS011;38621;52.830;6.914;2022-11-11T15:45:31;5.82;;;3.63;;
52724;SDS011;38621;52.830;6.914;2022-11-11T15:47:57;6.47;;;3.42;;
52724;SDS011;38621;52.830;6.914;2022-11-11T15:52:54;4.38;;;3.13;;
52724;SDS011;38621;52.830;6.914;2022-11-11T15:55:24;5.90;;;3.00;;
52724;SDS011;38621;52.830;6.914;2022-11-11T15:57:52;5.82;;;3.22;;
52724;SDS011;38621;52.830;6.914;2022-11-11T16:02:49;5.57;;;3.47;;
52724;SDS011;38621;52.830;6.914;2022-11-11T16:05:21;6.93;;;3.50;;
52724;SDS011;38621;52.830;6.914;2022-11-11T16:07:49;5.60;;;3.53;;
52724;SDS011;38621;52.830;6.914;2022-11-11T16:10:18;5.40;;;3.30;;
52724;SDS011;38621;52.830;6.914;2022-11-11T16:12:58;6.55;;;3.25;;
52724;SDS011;38621;52.830;6.914;2022-11-11T16:15:42;5.57;;;3.25;;
52724;SDS011;38621;52.830;6.914;2022-11-11T16:23:28;5.63;;;3.30;;
52724;SDS011;38621;52.830;6.914;2022-11-11T16:25:56;5.90;;;3.58;;
52724;SDS011;38621;52.830;6.914;2022-11-11T16:28:23;6.57;;;3.08;;
52724;SDS011;38621;52.830;6.914;2022-11-11T16:30:51;5.20;;;3.35;;
52724;SDS011;38621;52.830;6.914;2022-11-11T16:33:18;6.07;;;3.25;;
52724;SDS011;38621;52.830;6.914;2022-11-11T16:36:05;5.10;;;2.90;;
52724;SDS011;38621;52.830;6.914;2022-11-11T16:38:33;4.78;;;3.03;;
52724;SDS011;38621;52.830;6.914;2022-11-11T16:40:59;4.78;;;3.20;;
52724;SDS011;38621;52.830;6.914;2022-11-11T16:43:40;4.57;;;2.95;;
52724;SDS011;38621;52.830;6.914;2022-11-11T16:46:36;3.70;;;2.63;;
52724;SDS011;38621;52.830;6.914;2022-11-11T16:49:14;4.63;;;2.55;;
52724;SDS011;38621;52.830;6.914;2022-11-11T16:51:49;8.45;;;2.90;;
52724;SDS011;38621;52.830;6.914;2022-11-11T16:54:16;4.53;;;2.55;;
52724;SDS011;38621;52.830;6.914;2022-11-11T16:56:45;6.97;;;3.20;;
52724;SDS011;38621;52.830;6.914;2022-11-11T16:59:19;5.00;;;3.17;;
52724;SDS011;38621;52.830;6.914;2022-11-11T17:01:46;4.15;;;2.50;;
52724;SDS011;38621;52.830;6.914;2022-11-11T17:04:12;5.43;;;2.92;;
52724;SDS011;38621;52.830;6.914;2022-11-11T17:12:04;5.20;;;2.92;;
52724;SDS011;38621;52.830;6.914;2022-11-11T17:14:32;4.38;;;2.67;;
52724;SDS011;38621;52.830;6.914;2022-11-11T17:17:00;4.72;;;3.35;;
52724;SDS011;38621;52.830;6.914;2022-11-11T17:19:26;5.07;;;2.58;;
52724;SDS011;38621;52.830;6.914;2022-11-11T17:21:56;4.82;;;2.80;;
52724;SDS011;38621;52.830;6.914;2022-11-11T17:24:37;5.28;;;3.00;;
52724;SDS011;38621;52.830;6.914;2022-11-11T17:27:03;4.95;;;3.03;;
52724;SDS011;38621;52.830;6.914;2022-11-11T17:29:29;4.82;;;2.95;;